sensor_id;sensor_type;location;lat;lon;timestamp;temperature;humidity
41884;DHT22;27566;50.930;5.328;2024-02-04T00:01:04;11.80;94.80
41884;DHT22;27566;50.930;5.328;2024-02-04T00:03:30;12.00;94.40
41884;DHT22;27566;50.930;5.328;2024-02-04T00:25:24;12.10;95.20
41884;DHT22;27566;50.930;5.328;2024-02-04T00:30:16;11.80;95.30
41884;DHT22;27566;50.930;5.328;2024-02-04T00:32:42;11.80;95.00
41884;DHT22;27566;50.930;5.328;2024-02-04T00:35:08;11.50;94.90
41884;DHT22;27566;50.930;5.328;2024-02-04T00:37:33;12.10;95.50
41884;DHT22;27566;50.930;5.328;2024-02-04T00:39:59;11.80;95.30
41884;DHT22;27566;50.930;5.328;2024-02-04T00:42:25;11.90;95.20
41884;DHT22;27566;50.930;5.328;2024-02-04T00:44:51;12.10;95.70
41884;DHT22;27566;50.930;5.328;2024-02-04T00:49:43;10.60;92.70
41884;DHT22;27566;50.930;5.328;2024-02-04T00:52:09;8.80;94.90
41884;DHT22;27566;50.930;5.328;2024-02-04T00:57:01;11.70;93.00
41884;DHT22;27566;50.930;5.328;2024-02-04T00:59:27;12.10;95.70
41884;DHT22;27566;50.930;5.328;2024-02-04T01:04:21;11.80;93.10
41884;DHT22;27566;50.930;5.328;2024-02-04T01:06:48;11.50;95.70
41884;DHT22;27566;50.930;5.328;2024-02-04T01:09:14;11.80;95.80
41884;DHT22;27566;50.930;5.328;2024-02-04T01:14:06;11.90;95.80
41884;DHT22;27566;50.930;5.328;2024-02-04T01:16:32;11.80;95.70
41884;DHT22;27566;50.930;5.328;2024-02-04T01:18:58;11.70;93.40
41884;DHT22;27566;50.930;5.328;2024-02-04T01:23:51;11.90;95.70
41884;DHT22;27566;50.930;5.328;2024-02-04T01:26:17;12.00;95.60
41884;DHT22;27566;50.930;5.328;2024-02-04T01:28:43;11.50;95.50
41884;DHT22;27566;50.930;5.328;2024-02-04T01:31:09;11.90;95.80
41884;DHT22;27566;50.930;5.328;2024-02-04T01:33:35;11.60;95.50
41884;DHT22;27566;50.930;5.328;2024-02-04T01:36:01;11.80;93.60
41884;DHT22;27566;50.930;5.328;2024-02-04T01:38:27;12.00;95.80
41884;DHT22;27566;50.930;5.328;2024-02-04T01:40:52;11.50;95.30
41884;DHT22;27566;50.930;5.328;2024-02-04T01:43:19;11.50;95.40
41884;DHT22;27566;50.930;5.328;2024-02-04T01:45:47;12.10;95.30
41884;DHT22;27566;50.930;5.328;2024-02-04T01:48:14;11.70;95.30
41884;DHT22;27566;50.930;5.328;2024-02-04T01:50:42;11.60;95.30
41884;DHT22;27566;50.930;5.328;2024-02-04T01:53:08;12.00;95.80
41884;DHT22;27566;50.930;5.328;2024-02-04T01:55:34;11.80;93.60
41884;DHT22;27566;50.930;5.328;2024-02-04T01:58:01;11.60;95.70
41884;DHT22;27566;50.930;5.328;2024-02-04T02:00:27;11.90;95.80
41884;DHT22;27566;50.930;5.328;2024-02-04T02:05:19;12.00;96.10
41884;DHT22;27566;50.930;5.328;2024-02-04T02:07:45;11.70;96.30
41884;DHT22;27566;50.930;5.328;2024-02-04T02:10:13;7.90;92.60
41884;DHT22;27566;50.930;5.328;2024-02-04T02:13:03;11.50;96.20
41884;DHT22;27566;50.930;5.328;2024-02-04T02:15:33;12.00;96.50
41884;DHT22;27566;50.930;5.328;2024-02-04T02:18:12;11.70;96.00
41884;DHT22;27566;50.930;5.328;2024-02-04T02:21:02;12.00;96.40
41884;DHT22;27566;50.930;5.328;2024-02-04T02:24:13;11.80;96.20
41884;DHT22;27566;50.930;5.328;2024-02-04T02:26:40;11.90;96.70
41884;DHT22;27566;50.930;5.328;2024-02-04T02:29:06;11.70;96.40
41884;DHT22;27566;50.930;5.328;2024-02-04T02:31:38;11.90;96.30
41884;DHT22;27566;50.930;5.328;2024-02-04T02:34:04;11.90;96.40
41884;DHT22;27566;50.930;5.328;2024-02-04T02:36:44;11.80;96.70
41884;DHT22;27566;50.930;5.328;2024-02-04T02:39:27;11.90;95.90
41884;DHT22;27566;50.930;5.328;2024-02-04T02:41:59;11.90;95.90
41884;DHT22;27566;50.930;5.328;2024-02-04T02:44:27;12.10;95.90
41884;DHT22;27566;50.930;5.328;2024-02-04T02:46:58;11.60;95.80
41884;DHT22;27566;50.930;5.328;2024-02-04T02:49:25;12.20;96.00
41884;DHT22;27566;50.930;5.328;2024-02-04T02:51:51;11.90;96.20
41884;DHT22;27566;50.930;5.328;2024-02-04T02:56:52;12.60;93.70
41884;DHT22;27566;50.930;5.328;2024-02-04T02:59:17;11.60;95.80
41884;DHT22;27566;50.930;5.328;2024-02-04T03:04:10;11.90;93.60
41884;DHT22;27566;50.930;5.328;2024-02-04T03:09:02;12.10;95.60
41884;DHT22;27566;50.930;5.328;2024-02-04T03:11:28;11.90;93.90
41884;DHT22;27566;50.930;5.328;2024-02-04T03:13:54;12.00;95.60
41884;DHT22;27566;50.930;5.328;2024-02-04T03:16:19;11.90;93.90
41884;DHT22;27566;50.930;5.328;2024-02-04T03:18:46;11.90;93.60
41884;DHT22;27566;50.930;5.328;2024-02-04T03:21:13;12.00;96.30
41884;DHT22;27566;50.930;5.328;2024-02-04T03:23:40;12.10;96.50
41884;DHT22;27566;50.930;5.328;2024-02-04T03:26:06;11.40;94.70
41884;DHT22;27566;50.930;5.328;2024-02-04T03:33:24;11.70;97.10
41884;DHT22;27566;50.930;5.328;2024-02-04T03:38:16;12.20;93.90
41884;DHT22;27566;50.930;5.328;2024-02-04T03:43:09;11.90;93.50
41884;DHT22;27566;50.930;5.328;2024-02-04T03:45:37;12.00;93.70
41884;DHT22;27566;50.930;5.328;2024-02-04T03:48:03;11.90;95.70
41884;DHT22;27566;50.930;5.328;2024-02-04T03:50:29;11.70;96.30
41884;DHT22;27566;50.930;5.328;2024-02-04T03:55:21;12.10;97.10
41884;DHT22;27566;50.930;5.328;2024-02-04T03:57:47;12.30;96.50
41884;DHT22;27566;50.930;5.328;2024-02-04T04:00:13;11.80;97.30
41884;DHT22;27566;50.930;5.328;2024-02-04T04:02:41;12.30;97.80
41884;DHT22;27566;50.930;5.328;2024-02-04T04:05:10;12.00;94.20
41884;DHT22;27566;50.930;5.328;2024-02-04T04:07:39;11.70;95.90
41884;DHT22;27566;50.930;5.328;2024-02-04T04:10:05;12.10;96.00
41884;DHT22;27566;50.930;5.328;2024-02-04T04:12:31;12.10;96.40
41884;DHT22;27566;50.930;5.328;2024-02-04T04:14:57;11.70;96.60
41884;DHT22;27566;50.930;5.328;2024-02-04T04:17:23;12.10;97.20
41884;DHT22;27566;50.930;5.328;2024-02-04T04:19:49;11.70;97.30
41884;DHT22;27566;50.930;5.328;2024-02-04T04:24:41;12.30;98.00
41884;DHT22;27566;50.930;5.328;2024-02-04T04:27:07;12.20;99.90
41884;DHT22;27566;50.930;5.328;2024-02-04T04:34:25;12.40;97.40
41884;DHT22;27566;50.930;5.328;2024-02-04T04:39:17;12.20;96.10
41884;DHT22;27566;50.930;5.328;2024-02-04T04:41:44;11.80;96.00
41884;DHT22;27566;50.930;5.328;2024-02-04T04:46:39;11.70;96.60
41884;DHT22;27566;50.930;5.328;2024-02-04T04:49:06;11.90;96.40
41884;DHT22;27566;50.930;5.328;2024-02-04T04:51:32;12.10;96.90
41884;DHT22;27566;50.930;5.328;2024-02-04T04:53:58;12.20;94.10
41884;DHT22;27566;50.930;5.328;2024-02-04T04:56:24;12.20;97.10
41884;DHT22;27566;50.930;5.328;2024-02-04T04:58:50;12.30;97.60
41884;DHT22;27566;50.930;5.328;2024-02-04T05:01:16;12.20;94.60
41884;DHT22;27566;50.930;5.328;2024-02-04T05:06:08;11.70;97.30
41884;DHT22;27566;50.930;5.328;2024-02-04T05:08:34;12.10;97.80
41884;DHT22;27566;50.930;5.328;2024-02-04T05:15:53;12.10;94.40
41884;DHT22;27566;50.930;5.328;2024-02-04T05:18:19;12.30;96.10
41884;DHT22;27566;50.930;5.328;2024-02-04T05:20:45;12.20;96.30
41884;DHT22;27566;50.930;5.328;2024-02-04T05:23:11;11.70;96.70
41884;DHT22;27566;50.930;5.328;2024-02-04T05:25:37;12.30;94.70
41884;DHT22;27566;50.930;5.328;2024-02-04T05:28:03;12.30;97.50
41884;DHT22;27566;50.930;5.328;2024-02-04T05:30:29;12.40;98.50
41884;DHT22;27566;50.930;5.328;2024-02-04T05:40:13;12.00;93.70
41884;DHT22;27566;50.930;5.328;2024-02-04T05:42:42;12.00;94.10
41884;DHT22;27566;50.930;5.328;2024-02-04T05:45:08;12.00;94.10
41884;DHT22;27566;50.930;5.328;2024-02-04T05:47:34;12.00;94.20
41884;DHT22;27566;50.930;5.328;2024-02-04T05:50:00;12.00;94.20
41884;DHT22;27566;50.930;5.328;2024-02-04T05:52:26;12.00;94.20
41884;DHT22;27566;50.930;5.328;2024-02-04T05:54:52;12.00;94.20
41884;DHT22;27566;50.930;5.328;2024-02-04T05:57:18;12.00;94.50
41884;DHT22;27566;50.930;5.328;2024-02-04T05:59:45;12.00;94.20
41884;DHT22;27566;50.930;5.328;2024-02-04T06:02:14;12.00;94.30
41884;DHT22;27566;50.930;5.328;2024-02-04T06:04:40;12.00;94.30
41884;DHT22;27566;50.930;5.328;2024-02-04T06:07:06;11.80;96.00
41884;DHT22;27566;50.930;5.328;2024-02-04T06:09:35;12.00;96.10
41884;DHT22;27566;50.930;5.328;2024-02-04T06:12:01;12.00;94.40
41884;DHT22;27566;50.930;5.328;2024-02-04T06:14:27;11.90;94.40
41884;DHT22;27566;50.930;5.328;2024-02-04T06:16:53;12.20;94.60
41884;DHT22;27566;50.930;5.328;2024-02-04T06:21:45;12.10;97.50
41884;DHT22;27566;50.930;5.328;2024-02-04T06:26:38;11.90;94.20
41884;DHT22;27566;50.930;5.328;2024-02-04T06:29:05;12.20;97.60
41884;DHT22;27566;50.930;5.328;2024-02-04T06:31:31;12.00;97.70
41884;DHT22;27566;50.930;5.328;2024-02-04T06:36:23;11.60;98.70
41884;DHT22;27566;50.930;5.328;2024-02-04T06:41:15;11.90;97.10
41884;DHT22;27566;50.930;5.328;2024-02-04T06:43:41;12.10;97.00
41884;DHT22;27566;50.930;5.328;2024-02-04T06:46:06;11.70;97.60
41884;DHT22;27566;50.930;5.328;2024-02-04T06:48:32;11.50;98.20
41884;DHT22;27566;50.930;5.328;2024-02-04T06:53:25;12.30;96.90
41884;DHT22;27566;50.930;5.328;2024-02-04T07:00:43;12.00;97.70
41884;DHT22;27566;50.930;5.328;2024-02-04T07:10:28;12.30;98.10
41884;DHT22;27566;50.930;5.328;2024-02-04T07:12:54;11.90;94.40
41884;DHT22;27566;50.930;5.328;2024-02-04T07:15:19;11.90;94.70
41884;DHT22;27566;50.930;5.328;2024-02-04T07:17:45;11.90;94.80
41884;DHT22;27566;50.930;5.328;2024-02-04T07:20:11;11.90;94.70
41884;DHT22;27566;50.930;5.328;2024-02-04T07:22:37;12.00;95.70
41884;DHT22;27566;50.930;5.328;2024-02-04T07:25:03;11.90;94.70
41884;DHT22;27566;50.930;5.328;2024-02-04T07:27:29;11.80;96.00
41884;DHT22;27566;50.930;5.328;2024-02-04T07:29:56;11.90;94.80
41884;DHT22;27566;50.930;5.328;2024-02-04T07:32:23;11.90;94.80
41884;DHT22;27566;50.930;5.328;2024-02-04T07:34:49;11.80;96.20
41884;DHT22;27566;50.930;5.328;2024-02-04T07:37:15;11.90;94.80
41884;DHT22;27566;50.930;5.328;2024-02-04T07:39:43;12.10;96.90
41884;DHT22;27566;50.930;5.328;2024-02-04T07:42:09;12.40;97.20
41884;DHT22;27566;50.930;5.328;2024-02-04T07:44:35;12.00;94.80
41884;DHT22;27566;50.930;5.328;2024-02-04T07:47:00;12.10;96.70
41884;DHT22;27566;50.930;5.328;2024-02-04T07:49:26;12.10;96.80
41884;DHT22;27566;50.930;5.328;2024-02-04T07:51:52;11.90;97.20
41884;DHT22;27566;50.930;5.328;2024-02-04T07:54:18;11.80;97.70
41884;DHT22;27566;50.930;5.328;2024-02-04T07:59:10;12.20;97.90
41884;DHT22;27566;50.930;5.328;2024-02-04T08:01:37;12.30;98.10
41884;DHT22;27566;50.930;5.328;2024-02-04T08:11:25;12.00;99.90
41884;DHT22;27566;50.930;5.328;2024-02-04T08:16:17;12.00;96.70
41884;DHT22;27566;50.930;5.328;2024-02-04T08:18:43;12.00;96.60
41884;DHT22;27566;50.930;5.328;2024-02-04T08:21:09;11.90;96.80
41884;DHT22;27566;50.930;5.328;2024-02-04T08:23:35;12.10;97.30
41884;DHT22;27566;50.930;5.328;2024-02-04T08:26:01;11.90;97.30
41884;DHT22;27566;50.930;5.328;2024-02-04T08:35:48;12.20;99.90
41884;DHT22;27566;50.930;5.328;2024-02-04T08:38:14;12.30;94.70
41884;DHT22;27566;50.930;5.328;2024-02-04T08:45:32;12.20;97.20
41884;DHT22;27566;50.930;5.328;2024-02-04T08:52:51;12.90;97.80
41884;DHT22;27566;50.930;5.328;2024-02-04T09:00:11;13.20;96.80
41884;DHT22;27566;50.930;5.328;2024-02-04T09:02:38;13.00;97.40
41884;DHT22;27566;50.930;5.328;2024-02-04T09:05:04;13.10;94.50
41884;DHT22;27566;50.930;5.328;2024-02-04T09:07:30;13.00;94.50
41884;DHT22;27566;50.930;5.328;2024-02-04T09:09:57;12.80;99.90
41884;DHT22;27566;50.930;5.328;2024-02-04T09:19:41;13.20;96.70
41884;DHT22;27566;50.930;5.328;2024-02-04T09:41:38;13.50;93.10
41884;DHT22;27566;50.930;5.328;2024-02-04T09:44:04;13.40;93.40
41884;DHT22;27566;50.930;5.328;2024-02-04T09:46:31;13.40;93.50
41884;DHT22;27566;50.930;5.328;2024-02-04T09:48:58;13.40;93.40
41884;DHT22;27566;50.930;5.328;2024-02-04T09:51:26;13.40;93.30
41884;DHT22;27566;50.930;5.328;2024-02-04T09:53:53;13.50;93.40
41884;DHT22;27566;50.930;5.328;2024-02-04T09:56:22;13.40;93.50
41884;DHT22;27566;50.930;5.328;2024-02-04T09:58:50;13.60;93.60
41884;DHT22;27566;50.930;5.328;2024-02-04T10:01:19;13.70;93.50
41884;DHT22;27566;50.930;5.328;2024-02-04T10:03:47;13.90;93.30
41884;DHT22;27566;50.930;5.328;2024-02-04T10:06:13;13.90;93.20
41884;DHT22;27566;50.930;5.328;2024-02-04T10:08:40;14.00;93.10
41884;DHT22;27566;50.930;5.328;2024-02-04T10:11:06;14.00;92.80
41884;DHT22;27566;50.930;5.328;2024-02-04T10:13:48;13.90;92.80
41884;DHT22;27566;50.930;5.328;2024-02-04T10:16:16;13.90;93.00
41884;DHT22;27566;50.930;5.328;2024-02-04T10:18:46;14.00;93.00
41884;DHT22;27566;50.930;5.328;2024-02-04T10:21:21;14.10;93.00
41884;DHT22;27566;50.930;5.328;2024-02-04T10:23:49;14.20;92.90
41884;DHT22;27566;50.930;5.328;2024-02-04T10:26:16;14.20;92.60
41884;DHT22;27566;50.930;5.328;2024-02-04T10:28:42;14.10;92.50
41884;DHT22;27566;50.930;5.328;2024-02-04T10:31:10;14.00;92.50
41884;DHT22;27566;50.930;5.328;2024-02-04T10:33:37;13.90;92.50
41884;DHT22;27566;50.930;5.328;2024-02-04T10:36:03;13.90;92.50
41884;DHT22;27566;50.930;5.328;2024-02-04T10:38:30;13.80;92.50
41884;DHT22;27566;50.930;5.328;2024-02-04T10:41:00;13.70;92.40
41884;DHT22;27566;50.930;5.328;2024-02-04T10:43:33;13.80;92.40
41884;DHT22;27566;50.930;5.328;2024-02-04T10:46:19;13.80;92.60
41884;DHT22;27566;50.930;5.328;2024-02-04T10:48:54;13.90;92.80
41884;DHT22;27566;50.930;5.328;2024-02-04T10:51:24;13.90;93.00
41884;DHT22;27566;50.930;5.328;2024-02-04T10:53:54;13.90;92.60
41884;DHT22;27566;50.930;5.328;2024-02-04T10:59:01;13.90;92.60
41884;DHT22;27566;50.930;5.328;2024-02-04T11:01:28;13.80;92.60
41884;DHT22;27566;50.930;5.328;2024-02-04T11:03:55;13.70;92.60
41884;DHT22;27566;50.930;5.328;2024-02-04T11:06:23;13.70;92.70
41884;DHT22;27566;50.930;5.328;2024-02-04T11:08:50;13.60;92.70
41884;DHT22;27566;50.930;5.328;2024-02-04T11:11:20;13.60;92.70
41884;DHT22;27566;50.930;5.328;2024-02-04T11:13:51;13.50;92.60
41884;DHT22;27566;50.930;5.328;2024-02-04T11:16:28;13.50;92.90
41884;DHT22;27566;50.930;5.328;2024-02-04T11:25:09;13.70;92.80
41884;DHT22;27566;50.930;5.328;2024-02-04T11:27:41;13.70;93.00
41884;DHT22;27566;50.930;5.328;2024-02-04T11:30:08;13.70;92.90
41884;DHT22;27566;50.930;5.328;2024-02-04T11:32:35;13.70;92.80
41884;DHT22;27566;50.930;5.328;2024-02-04T11:35:02;13.70;92.90
41884;DHT22;27566;50.930;5.328;2024-02-04T11:37:28;13.70;92.90
41884;DHT22;27566;50.930;5.328;2024-02-04T11:39:56;13.80;92.80
41884;DHT22;27566;50.930;5.328;2024-02-04T11:42:23;13.80;92.70
41884;DHT22;27566;50.930;5.328;2024-02-04T11:44:50;13.70;92.50
41884;DHT22;27566;50.930;5.328;2024-02-04T11:47:23;13.70;92.50
41884;DHT22;27566;50.930;5.328;2024-02-04T11:49:59;13.80;92.70
41884;DHT22;27566;50.930;5.328;2024-02-04T11:52:28;13.80;92.60
41884;DHT22;27566;50.930;5.328;2024-02-04T11:54:54;13.90;92.50
41884;DHT22;27566;50.930;5.328;2024-02-04T11:57:20;13.90;92.10
41884;DHT22;27566;50.930;5.328;2024-02-04T11:59:47;13.90;92.30
41884;DHT22;27566;50.930;5.328;2024-02-04T12:02:16;13.90;92.50
41884;DHT22;27566;50.930;5.328;2024-02-04T12:04:46;13.90;92.50
41884;DHT22;27566;50.930;5.328;2024-02-04T12:07:17;13.90;92.40
41884;DHT22;27566;50.930;5.328;2024-02-04T12:09:43;13.90;92.40
41884;DHT22;27566;50.930;5.328;2024-02-04T12:12:09;13.90;92.40
41884;DHT22;27566;50.930;5.328;2024-02-04T12:14:36;13.90;92.40
41884;DHT22;27566;50.930;5.328;2024-02-04T12:17:10;13.80;92.40
41884;DHT22;27566;50.930;5.328;2024-02-04T12:19:39;13.70;92.50
41884;DHT22;27566;50.930;5.328;2024-02-04T12:22:05;13.70;92.60
41884;DHT22;27566;50.930;5.328;2024-02-04T12:24:38;13.70;92.70
41884;DHT22;27566;50.930;5.328;2024-02-04T12:27:05;13.60;92.80
41884;DHT22;27566;50.930;5.328;2024-02-04T12:29:31;13.60;92.80
41884;DHT22;27566;50.930;5.328;2024-02-04T12:32:01;13.60;92.80
41884;DHT22;27566;50.930;5.328;2024-02-04T12:34:29;13.60;92.90
41884;DHT22;27566;50.930;5.328;2024-02-04T12:36:59;13.60;92.80
41884;DHT22;27566;50.930;5.328;2024-02-04T12:39:26;13.60;92.90
41884;DHT22;27566;50.930;5.328;2024-02-04T12:41:52;13.60;93.00
41884;DHT22;27566;50.930;5.328;2024-02-04T12:44:18;13.50;92.70
41884;DHT22;27566;50.930;5.328;2024-02-04T12:46:44;13.50;93.20
41884;DHT22;27566;50.930;5.328;2024-02-04T12:49:16;13.50;93.00
41884;DHT22;27566;50.930;5.328;2024-02-04T12:51:43;13.60;93.20
41884;DHT22;27566;50.930;5.328;2024-02-04T12:54:10;13.50;92.90
41884;DHT22;27566;50.930;5.328;2024-02-04T12:56:45;13.50;93.10
41884;DHT22;27566;50.930;5.328;2024-02-04T12:59:23;13.50;93.20
41884;DHT22;27566;50.930;5.328;2024-02-04T13:01:57;13.50;92.80
41884;DHT22;27566;50.930;5.328;2024-02-04T13:04:24;13.50;93.10
41884;DHT22;27566;50.930;5.328;2024-02-04T13:06:50;13.50;93.10
41884;DHT22;27566;50.930;5.328;2024-02-04T13:09:17;13.50;93.00
41884;DHT22;27566;50.930;5.328;2024-02-04T13:11:44;13.50;93.20
41884;DHT22;27566;50.930;5.328;2024-02-04T13:14:10;13.50;93.20
41884;DHT22;27566;50.930;5.328;2024-02-04T13:16:37;13.60;93.20
41884;DHT22;27566;50.930;5.328;2024-02-04T13:19:04;13.50;93.40
41884;DHT22;27566;50.930;5.328;2024-02-04T13:21:30;13.60;93.20
41884;DHT22;27566;50.930;5.328;2024-02-04T13:23:56;13.50;93.00
41884;DHT22;27566;50.930;5.328;2024-02-04T13:28:49;13.30;93.30
41884;DHT22;27566;50.930;5.328;2024-02-04T13:31:15;13.30;93.50
41884;DHT22;27566;50.930;5.328;2024-02-04T13:33:41;13.20;93.50
41884;DHT22;27566;50.930;5.328;2024-02-04T13:36:07;13.20;93.60
41884;DHT22;27566;50.930;5.328;2024-02-04T13:38:36;13.20;93.70
41884;DHT22;27566;50.930;5.328;2024-02-04T13:41:02;13.20;93.70
41884;DHT22;27566;50.930;5.328;2024-02-04T13:43:31;13.20;93.60
41884;DHT22;27566;50.930;5.328;2024-02-04T13:45:57;13.20;93.40
41884;DHT22;27566;50.930;5.328;2024-02-04T13:48:23;13.20;94.00
41884;DHT22;27566;50.930;5.328;2024-02-04T13:50:51;13.20;93.60
41884;DHT22;27566;50.930;5.328;2024-02-04T13:55:43;13.20;93.30
41884;DHT22;27566;50.930;5.328;2024-02-04T13:58:10;13.20;93.50
41884;DHT22;27566;50.930;5.328;2024-02-04T14:00:36;13.20;93.50
41884;DHT22;27566;50.930;5.328;2024-02-04T14:03:04;13.20;93.60
41884;DHT22;27566;50.930;5.328;2024-02-04T14:05:29;13.20;93.50
41884;DHT22;27566;50.930;5.328;2024-02-04T14:07:55;13.10;93.50
41884;DHT22;27566;50.930;5.328;2024-02-04T14:10:21;13.10;93.60
41884;DHT22;27566;50.930;5.328;2024-02-04T14:12:47;13.10;93.70
41884;DHT22;27566;50.930;5.328;2024-02-04T14:17:39;13.10;93.50
41884;DHT22;27566;50.930;5.328;2024-02-04T14:20:06;13.10;93.80
41884;DHT22;27566;50.930;5.328;2024-02-04T14:22:32;13.10;93.70
41884;DHT22;27566;50.930;5.328;2024-02-04T14:24:58;13.10;93.80
41884;DHT22;27566;50.930;5.328;2024-02-04T14:27:25;13.10;93.80
41884;DHT22;27566;50.930;5.328;2024-02-04T14:37:10;13.00;93.70
41884;DHT22;27566;50.930;5.328;2024-02-04T14:42:03;13.10;93.60
41884;DHT22;27566;50.930;5.328;2024-02-04T14:46:55;13.20;93.40
41884;DHT22;27566;50.930;5.328;2024-02-04T14:51:47;13.30;93.20
41884;DHT22;27566;50.930;5.328;2024-02-04T14:56:39;13.30;92.90
41884;DHT22;27566;50.930;5.328;2024-02-04T14:59:06;13.30;93.20
41884;DHT22;27566;50.930;5.328;2024-02-04T15:01:33;13.30;93.20
41884;DHT22;27566;50.930;5.328;2024-02-04T15:03:58;13.40;93.20
41884;DHT22;27566;50.930;5.328;2024-02-04T15:06:24;13.30;93.00
41884;DHT22;27566;50.930;5.328;2024-02-04T15:08:50;13.30;93.10
41884;DHT22;27566;50.930;5.328;2024-02-04T15:13:45;13.40;92.70
41884;DHT22;27566;50.930;5.328;2024-02-04T15:16:11;13.30;93.10
41884;DHT22;27566;50.930;5.328;2024-02-04T15:18:38;13.30;93.00
41884;DHT22;27566;50.930;5.328;2024-02-04T15:21:04;13.30;93.10
41884;DHT22;27566;50.930;5.328;2024-02-04T15:23:30;13.30;93.00
41884;DHT22;27566;50.930;5.328;2024-02-04T15:25:56;13.40;92.90
41884;DHT22;27566;50.930;5.328;2024-02-04T15:28:24;13.40;92.80
41884;DHT22;27566;50.930;5.328;2024-02-04T15:30:50;13.40;92.80
41884;DHT22;27566;50.930;5.328;2024-02-04T15:33:16;13.30;92.90
41884;DHT22;27566;50.930;5.328;2024-02-04T15:35:42;13.30;92.80
41884;DHT22;27566;50.930;5.328;2024-02-04T15:40:34;13.30;92.60
41884;DHT22;27566;50.930;5.328;2024-02-04T15:42:59;13.20;92.80
41884;DHT22;27566;50.930;5.328;2024-02-04T15:45:26;13.20;93.00
41884;DHT22;27566;50.930;5.328;2024-02-04T15:47:53;13.20;93.00
41884;DHT22;27566;50.930;5.328;2024-02-04T15:50:23;13.20;92.90
41884;DHT22;27566;50.930;5.328;2024-02-04T15:52:52;13.20;92.80
41884;DHT22;27566;50.930;5.328;2024-02-04T15:55:18;13.20;92.90
41884;DHT22;27566;50.930;5.328;2024-02-04T15:57:48;13.20;92.90
41884;DHT22;27566;50.930;5.328;2024-02-04T16:00:16;13.20;92.80
41884;DHT22;27566;50.930;5.328;2024-02-04T16:02:52;13.10;92.80
41884;DHT22;27566;50.930;5.328;2024-02-04T16:05:19;13.00;92.60
41884;DHT22;27566;50.930;5.328;2024-02-04T16:07:46;13.10;92.80
41884;DHT22;27566;50.930;5.328;2024-02-04T16:10:15;13.20;92.60
41884;DHT22;27566;50.930;5.328;2024-02-04T16:17:56;13.10;92.60
41884;DHT22;27566;50.930;5.328;2024-02-04T16:37:34;13.00;92.40
41884;DHT22;27566;50.930;5.328;2024-02-04T16:40:01;13.00;92.50
41884;DHT22;27566;50.930;5.328;2024-02-04T16:42:26;13.00;92.40
41884;DHT22;27566;50.930;5.328;2024-02-04T16:44:55;13.00;92.60
41884;DHT22;27566;50.930;5.328;2024-02-04T16:49:47;12.90;92.50
41884;DHT22;27566;50.930;5.328;2024-02-04T16:54:41;12.90;92.50
41884;DHT22;27566;50.930;5.328;2024-02-04T17:02:03;12.90;92.40
41884;DHT22;27566;50.930;5.328;2024-02-04T17:04:29;12.90;92.60
41884;DHT22;27566;50.930;5.328;2024-02-04T17:06:55;12.90;92.70
41884;DHT22;27566;50.930;5.328;2024-02-04T17:11:48;12.90;92.20
41884;DHT22;27566;50.930;5.328;2024-02-04T17:14:15;12.90;92.70
41884;DHT22;27566;50.930;5.328;2024-02-04T17:16:58;12.80;92.30
41884;DHT22;27566;50.930;5.328;2024-02-04T17:22:17;12.90;92.60
41884;DHT22;27566;50.930;5.328;2024-02-04T17:24:51;12.90;92.30
41884;DHT22;27566;50.930;5.328;2024-02-04T17:59:19;12.80;92.00
41884;DHT22;27566;50.930;5.328;2024-02-04T18:06:38;12.80;92.00
41884;DHT22;27566;50.930;5.328;2024-02-04T18:14:01;12.80;92.00
41884;DHT22;27566;50.930;5.328;2024-02-04T18:26:27;12.80;91.90
41884;DHT22;27566;50.930;5.328;2024-02-04T18:28:54;12.80;91.80
41884;DHT22;27566;50.930;5.328;2024-02-04T18:31:22;12.80;91.80
41884;DHT22;27566;50.930;5.328;2024-02-04T18:36:17;12.80;91.90
41884;DHT22;27566;50.930;5.328;2024-02-04T18:38:48;12.70;91.70
41884;DHT22;27566;50.930;5.328;2024-02-04T18:48:35;12.60;91.70
41884;DHT22;27566;50.930;5.328;2024-02-04T18:53:34;12.60;91.80
41884;DHT22;27566;50.930;5.328;2024-02-04T18:56:06;12.50;91.80
41884;DHT22;27566;50.930;5.328;2024-02-04T19:01:00;12.40;92.00
41884;DHT22;27566;50.930;5.328;2024-02-04T19:20:32;12.20;92.50
41884;DHT22;27566;50.930;5.328;2024-02-04T19:27:57;12.20;92.70
41884;DHT22;27566;50.930;5.328;2024-02-04T19:30:25;12.20;92.90
41884;DHT22;27566;50.930;5.328;2024-02-04T19:40:14;12.10;92.80
41884;DHT22;27566;50.930;5.328;2024-02-04T19:42:41;12.10;93.00
41884;DHT22;27566;50.930;5.328;2024-02-04T19:45:11;12.10;92.90
41884;DHT22;27566;50.930;5.328;2024-02-04T19:47:38;12.10;92.90
41884;DHT22;27566;50.930;5.328;2024-02-04T19:52:34;12.10;93.00
41884;DHT22;27566;50.930;5.328;2024-02-04T19:59:52;12.00;93.10
41884;DHT22;27566;50.930;5.328;2024-02-04T20:02:22;11.90;93.20
41884;DHT22;27566;50.930;5.328;2024-02-04T20:04:49;12.00;93.50
41884;DHT22;27566;50.930;5.328;2024-02-04T20:07:15;12.00;93.80
41884;DHT22;27566;50.930;5.328;2024-02-04T20:09:41;12.00;93.20
41884;DHT22;27566;50.930;5.328;2024-02-04T20:12:10;12.00;93.20
41884;DHT22;27566;50.930;5.328;2024-02-04T20:14:36;12.00;93.50
41884;DHT22;27566;50.930;5.328;2024-02-04T20:17:03;12.00;93.70
41884;DHT22;27566;50.930;5.328;2024-02-04T20:19:28;12.00;93.60
41884;DHT22;27566;50.930;5.328;2024-02-04T20:24:21;12.00;93.30
41884;DHT22;27566;50.930;5.328;2024-02-04T20:26:46;12.00;93.30
41884;DHT22;27566;50.930;5.328;2024-02-04T20:29:12;12.20;93.50
41884;DHT22;27566;50.930;5.328;2024-02-04T20:31:38;12.00;93.40
41884;DHT22;27566;50.930;5.328;2024-02-04T20:34:06;12.00;93.40
41884;DHT22;27566;50.930;5.328;2024-02-04T20:36:35;12.00;93.70
41884;DHT22;27566;50.930;5.328;2024-02-04T20:39:02;12.00;93.70
41884;DHT22;27566;50.930;5.328;2024-02-04T20:41:28;12.00;93.70
41884;DHT22;27566;50.930;5.328;2024-02-04T20:43:54;12.00;93.80
41884;DHT22;27566;50.930;5.328;2024-02-04T20:46:20;12.00;93.70
41884;DHT22;27566;50.930;5.328;2024-02-04T20:48:46;12.00;93.70
41884;DHT22;27566;50.930;5.328;2024-02-04T20:51:12;12.20;93.50
41884;DHT22;27566;50.930;5.328;2024-02-04T20:53:38;12.00;93.70
41884;DHT22;27566;50.930;5.328;2024-02-04T20:58:33;11.10;93.20
41884;DHT22;27566;50.930;5.328;2024-02-04T21:01:04;12.00;93.70
41884;DHT22;27566;50.930;5.328;2024-02-04T21:05:58;12.00;93.50
41884;DHT22;27566;50.930;5.328;2024-02-04T21:08:24;12.00;93.80
41884;DHT22;27566;50.930;5.328;2024-02-04T21:13:16;11.90;93.50
41884;DHT22;27566;50.930;5.328;2024-02-04T21:15:42;12.00;93.80
41884;DHT22;27566;50.930;5.328;2024-02-04T21:18:08;12.00;93.80
41884;DHT22;27566;50.930;5.328;2024-02-04T21:20:36;12.00;93.70
41884;DHT22;27566;50.930;5.328;2024-02-04T21:23:02;12.30;93.60
41884;DHT22;27566;50.930;5.328;2024-02-04T21:25:28;12.00;93.60
41884;DHT22;27566;50.930;5.328;2024-02-04T21:30:20;12.00;93.40